This is the latest recevied weather packets stored in our database for station/object N3WPH. If no packets are shown the sender has not sent any weather packets the latest 10 day(s).
| Time | Temp. | Humidity | Pressure | Rain* | Wind** | Luminosity | Snow |
|---|---|---|---|---|---|---|---|
| 1777679987 | 9.44° C | 83% | 1012.1 hPa | 0 mm | - | 1 W/m² | - |
| 1777679683 | 9.44° C | 82% | 1012.1 hPa | 0 mm | - | 1 W/m² | - |
| 1777679378 | 9.44° C | 81% | 1011.9 hPa | 0 mm | - | 2 W/m² | - |
| 1777679075 | 9.44° C | 79% | 1011.7 hPa | 0 mm | - | 2 W/m² | - |
| 1777678774 | 10° C | 78% | 1011.6 hPa | 0 mm | - | 3 W/m² | - |
| 1777678471 | 10° C | 76% | 1011.5 hPa | 0 mm | - | 5 W/m² | - |
| 1777678167 | 10.56° C | 74% | 1011.5 hPa | 0 mm | - | 6 W/m² | - |
| 1777677864 | 10.56° C | 71% | 1011.5 hPa | 0 mm | - | 5 W/m² | - |
| 1777677561 | 11.11° C | 68% | 1011.3 hPa | 0 mm | - | 7 W/m² | - |
| 1777677260 | 11.11° C | 66% | 1011.1 hPa | 0 mm | - | 6 W/m² | - |
| 1777676957 | 11.67° C | 65% | 1011 hPa | 0 mm | - | 6 W/m² | - |
| 1777676656 | 11.67° C | 64% | 1010.9 hPa | 0 mm | - | 12 W/m² | - |
| 1777676353 | 11.67° C | 62% | 1010.8 hPa | 0 mm | - | 16 W/m² | - |
| 1777676051 | 11.67° C | 62% | 1010.7 hPa | 0 mm | - | 17 W/m² | - |
| 1777675746 | 11.67° C | 63% | 1010.9 hPa | 0 mm | - | 16 W/m² | - |
| 1777675444 | 12.22° C | 63% | 1010.7 hPa | 0 mm | - | 30 W/m² | - |
| 1777675141 | 12.22° C | 61% | 1010.8 hPa | 0 mm | - | 34 W/m² | - |
| 1777674837 | 12.22° C | 58% | 1010.8 hPa | 0 mm | - | 40 W/m² | - |
| 1777674533 | 12.22° C | 64% | 1010.6 hPa | 0 mm | - | 54 W/m² | - |
| 1777674231 | 12.22° C | 59% | 1010.7 hPa | 0 mm | - | 41 W/m² | - |
| 1777673927 | 12.22° C | 58% | 1010.9 hPa | 0 mm | - | 47 W/m² | - |
| 1777673624 | 12.22° C | 59% | 1011 hPa | 0 mm | - | 49 W/m² | - |
| 1777673322 | 12.22° C | 60% | 1011 hPa | 0 mm | - | 48 W/m² | - |
| 1777673019 | 12.22° C | 60% | 1011 hPa | 0 mm | - | 40 W/m² | - |
| 1777672715 | 12.22° C | 61% | 1011 hPa | 0 mm | - | 55 W/m² | - |
* Rain latest hour (hover to see other rain measurements)
** Current wind speed in m/s (hover to see current wind gust speed)